Air Resources Laboratory banner image
Air Resources Laboratory web site National Oceanic and Atmospheric Administration (NOAA)

ct metar


KBDL 130851Z 29011KT 10SM BKN065 BKN130 M06/M14 A2938 RMK AO2 PK WND 30026/0832
 SLP951 T10611144 50004=
KBDR 130852Z AUTO 28013G27KT 10SM BKN060 M05/M14 A2943 RMK AO2 PK WND
 28028/0833 SLP966 T10501144 50007=
KDXR 130853Z AUTO 29016G25KT 10SM CLR M07/M16 A2943 RMK AO2 SLP969 T10671161
 50004=
KGON 130856Z AUTO 31015G20KT 10SM BKN046 M03/M11 A2934 RMK AO2 PK WND
 32026/0758 SLP934 T10281111 58006 $=
KHFD 130853Z AUTO 30011G19KT 10SM OVC055 M04/M16 A2940 RMK AO2 PK WND
 28028/0826 SLP956 T10441161 50007=
KHVN 130853Z AUTO 28012G23KT 10SM OVC055 M04/M13 A2941 RMK AO2 PK WND
 30027/0829 SLP960 T10391128 50006=
KIJD 130852Z AUTO 29008G20KT 10SM CLR M04/M15 A2935 RMK AO2 SLP940 T10441150
 50002=
KMMK 130853Z AUTO 31012G26KT 10SM OVC055 M05/M14 A2939 RMK AO2 PK WND
 29026/0847 SLP954 T10501144 58000=
KOXC 130851Z AUTO 29010G20KT 10SM OVC049 M08/M14 A2938 RMK AO2 SLP969 60000
 T10781144 50002 FZRANO=